sensor_id;sensor_type;location;lat;lon;timestamp;P1;durP1;ratioP1;P2;durP2;ratioP2
33814;SDS011;20121;51.910;8.406;2022-08-25T00:01:59;2.97;;;1.42;;
33814;SDS011;20121;51.910;8.406;2022-08-25T00:04:26;1.70;;;1.60;;
33814;SDS011;20121;51.910;8.406;2022-08-25T00:06:53;1.70;;;1.60;;
33814;SDS011;20121;51.910;8.406;2022-08-25T00:09:21;1.80;;;1.70;;
33814;SDS011;20121;51.910;8.406;2022-08-25T00:11:50;2.95;;;1.52;;
33814;SDS011;20121;51.910;8.406;2022-08-25T00:14:18;1.73;;;1.50;;
33814;SDS011;20121;51.910;8.406;2022-08-25T00:16:49;1.70;;;1.58;;
33814;SDS011;20121;51.910;8.406;2022-08-25T00:19:17;2.97;;;1.60;;
33814;SDS011;20121;51.910;8.406;2022-08-25T00:21:46;2.03;;;1.85;;
33814;SDS011;20121;51.910;8.406;2022-08-25T00:24:13;14.32;;;1.63;;
33814;SDS011;20121;51.910;8.406;2022-08-25T00:26:41;1.75;;;1.65;;
33814;SDS011;20121;51.910;8.406;2022-08-25T00:29:09;2.17;;;1.98;;
33814;SDS011;20121;51.910;8.406;2022-08-25T00:31:35;2.00;;;1.80;;
33814;SDS011;20121;51.910;8.406;2022-08-25T00:34:02;2.75;;;1.70;;
33814;SDS011;20121;51.910;8.406;2022-08-25T00:36:31;2.00;;;1.80;;
33814;SDS011;20121;51.910;8.406;2022-08-25T00:38:57;1.90;;;1.80;;
33814;SDS011;20121;51.910;8.406;2022-08-25T00:41:23;1.90;;;1.77;;
33814;SDS011;20121;51.910;8.406;2022-08-25T00:43:57;1.67;;;1.58;;
33814;SDS011;20121;51.910;8.406;2022-08-25T00:46:26;2.67;;;1.58;;
33814;SDS011;20121;51.910;8.406;2022-08-25T00:48:55;1.60;;;1.50;;
33814;SDS011;20121;51.910;8.406;2022-08-25T00:51:27;1.73;;;1.63;;
33814;SDS011;20121;51.910;8.406;2022-08-25T00:54:08;1.90;;;1.63;;
33814;SDS011;20121;51.910;8.406;2022-08-25T00:56:38;1.50;;;1.40;;
33814;SDS011;20121;51.910;8.406;2022-08-25T00:59:05;2.83;;;1.38;;
33814;SDS011;20121;51.910;8.406;2022-08-25T01:01:30;1.73;;;1.63;;
33814;SDS011;20121;51.910;8.406;2022-08-25T01:03:56;2.90;;;2.20;;
33814;SDS011;20121;51.910;8.406;2022-08-25T01:06:22;1.93;;;1.83;;
33814;SDS011;20121;51.910;8.406;2022-08-25T01:08:48;3.55;;;1.58;;
33814;SDS011;20121;51.910;8.406;2022-08-25T01:11:15;1.42;;;1.33;;
33814;SDS011;20121;51.910;8.406;2022-08-25T01:13:45;1.60;;;1.50;;
33814;SDS011;20121;51.910;8.406;2022-08-25T01:16:15;1.92;;;1.80;;
33814;SDS011;20121;51.910;8.406;2022-08-25T01:18:48;1.58;;;1.48;;
33814;SDS011;20121;51.910;8.406;2022-08-25T01:21:21;2.85;;;2.28;;
33814;SDS011;20121;51.910;8.406;2022-08-25T01:23:48;1.60;;;1.50;;
33814;SDS011;20121;51.910;8.406;2022-08-25T01:26:16;2.10;;;2.00;;
33814;SDS011;20121;51.910;8.406;2022-08-25T01:28:47;1.80;;;1.70;;
33814;SDS011;20121;51.910;8.406;2022-08-25T01:31:33;1.80;;;1.60;;
33814;SDS011;20121;51.910;8.406;2022-08-25T01:34:01;1.90;;;1.70;;
33814;SDS011;20121;51.910;8.406;2022-08-25T01:36:27;1.95;;;1.80;;
33814;SDS011;20121;51.910;8.406;2022-08-25T01:38:54;2.83;;;2.00;;
33814;SDS011;20121;51.910;8.406;2022-08-25T01:41:25;2.17;;;1.90;;
33814;SDS011;20121;51.910;8.406;2022-08-25T01:43:57;1.88;;;1.60;;
33814;SDS011;20121;51.910;8.406;2022-08-25T01:46:23;2.37;;;2.17;;
33814;SDS011;20121;51.910;8.406;2022-08-25T01:48:49;2.53;;;2.33;;
33814;SDS011;20121;51.910;8.406;2022-08-25T01:51:15;1.67;;;1.57;;
33814;SDS011;20121;51.910;8.406;2022-08-25T01:53:45;2.50;;;2.15;;
33814;SDS011;20121;51.910;8.406;2022-08-25T01:56:11;2.47;;;2.07;;
33814;SDS011;20121;51.910;8.406;2022-08-25T01:58:39;1.60;;;1.42;;
33814;SDS011;20121;51.910;8.406;2022-08-25T02:01:08;3.40;;;2.15;;
33814;SDS011;20121;51.910;8.406;2022-08-25T02:03:38;1.80;;;1.70;;
33814;SDS011;20121;51.910;8.406;2022-08-25T02:06:05;2.13;;;2.00;;
33814;SDS011;20121;51.910;8.406;2022-08-25T02:08:31;3.20;;;1.70;;
33814;SDS011;20121;51.910;8.406;2022-08-25T02:10:57;3.20;;;2.43;;
33814;SDS011;20121;51.910;8.406;2022-08-25T02:13:22;2.33;;;2.00;;
33814;SDS011;20121;51.910;8.406;2022-08-25T02:15:49;3.63;;;2.43;;
33814;SDS011;20121;51.910;8.406;2022-08-25T02:18:18;1.95;;;1.70;;
33814;SDS011;20121;51.910;8.406;2022-08-25T02:20:44;2.78;;;2.55;;
33814;SDS011;20121;51.910;8.406;2022-08-25T02:23:10;2.13;;;2.03;;
33814;SDS011;20121;51.910;8.406;2022-08-25T02:25:36;2.50;;;2.30;;
33814;SDS011;20121;51.910;8.406;2022-08-25T02:28:03;2.20;;;2.00;;
33814;SDS011;20121;51.910;8.406;2022-08-25T02:30:30;1.98;;;1.70;;
33814;SDS011;20121;51.910;8.406;2022-08-25T02:32:56;2.33;;;2.13;;
33814;SDS011;20121;51.910;8.406;2022-08-25T02:35:22;4.70;;;2.83;;
33814;SDS011;20121;51.910;8.406;2022-08-25T02:37:49;2.20;;;1.98;;
33814;SDS011;20121;51.910;8.406;2022-08-25T02:40:16;2.08;;;1.90;;
33814;SDS011;20121;51.910;8.406;2022-08-25T02:42:42;2.17;;;1.92;;
33814;SDS011;20121;51.910;8.406;2022-08-25T02:45:08;1.73;;;1.63;;
33814;SDS011;20121;51.910;8.406;2022-08-25T02:47:34;2.73;;;1.50;;
33814;SDS011;20121;51.910;8.406;2022-08-25T02:50:01;2.75;;;2.03;;
33814;SDS011;20121;51.910;8.406;2022-08-25T02:52:30;6.90;;;2.15;;
33814;SDS011;20121;51.910;8.406;2022-08-25T02:54:56;1.70;;;1.60;;
33814;SDS011;20121;51.910;8.406;2022-08-25T02:57:21;2.60;;;2.40;;
33814;SDS011;20121;51.910;8.406;2022-08-25T02:59:47;2.67;;;2.40;;
33814;SDS011;20121;51.910;8.406;2022-08-25T03:02:13;2.77;;;2.53;;
33814;SDS011;20121;51.910;8.406;2022-08-25T03:04:40;8.02;;;2.60;;
33814;SDS011;20121;51.910;8.406;2022-08-25T03:07:06;2.55;;;2.20;;
33814;SDS011;20121;51.910;8.406;2022-08-25T03:09:33;2.15;;;1.95;;
33814;SDS011;20121;51.910;8.406;2022-08-25T03:11:59;2.20;;;2.00;;
33814;SDS011;20121;51.910;8.406;2022-08-25T03:14:24;1.50;;;1.40;;
33814;SDS011;20121;51.910;8.406;2022-08-25T03:16:50;3.03;;;2.60;;
33814;SDS011;20121;51.910;8.406;2022-08-25T03:19:16;3.08;;;2.70;;
33814;SDS011;20121;51.910;8.406;2022-08-25T03:21:42;2.10;;;1.90;;
33814;SDS011;20121;51.910;8.406;2022-08-25T03:24:10;3.08;;;2.42;;
33814;SDS011;20121;51.910;8.406;2022-08-25T03:26:36;4.05;;;2.83;;
33814;SDS011;20121;51.910;8.406;2022-08-25T03:29:17;6.45;;;2.20;;
33814;SDS011;20121;51.910;8.406;2022-08-25T03:31:47;7.07;;;2.60;;
33814;SDS011;20121;51.910;8.406;2022-08-25T03:34:14;2.75;;;2.28;;
33814;SDS011;20121;51.910;8.406;2022-08-25T03:36:41;2.83;;;2.45;;
33814;SDS011;20121;51.910;8.406;2022-08-25T03:39:07;2.67;;;2.45;;
33814;SDS011;20121;51.910;8.406;2022-08-25T03:41:33;3.20;;;2.60;;
33814;SDS011;20121;51.910;8.406;2022-08-25T03:44:00;3.90;;;3.13;;
33814;SDS011;20121;51.910;8.406;2022-08-25T03:46:29;5.45;;;2.75;;
33814;SDS011;20121;51.910;8.406;2022-08-25T03:48:58;3.08;;;2.58;;
33814;SDS011;20121;51.910;8.406;2022-08-25T03:51:30;4.47;;;2.83;;
33814;SDS011;20121;51.910;8.406;2022-08-25T03:53:58;2.50;;;2.30;;
33814;SDS011;20121;51.910;8.406;2022-08-25T03:56:25;5.82;;;3.10;;
33814;SDS011;20121;51.910;8.406;2022-08-25T03:58:52;3.20;;;2.33;;
33814;SDS011;20121;51.910;8.406;2022-08-25T04:01:18;3.10;;;2.80;;
33814;SDS011;20121;51.910;8.406;2022-08-25T04:03:44;3.10;;;2.77;;
33814;SDS011;20121;51.910;8.406;2022-08-25T04:06:10;10.48;;;2.30;;
33814;SDS011;20121;51.910;8.406;2022-08-25T04:08:36;3.15;;;2.90;;
33814;SDS011;20121;51.910;8.406;2022-08-25T04:11:09;3.57;;;2.17;;
33814;SDS011;20121;51.910;8.406;2022-08-25T04:13:40;2.42;;;1.95;;
33814;SDS011;20121;51.910;8.406;2022-08-25T04:16:09;3.13;;;2.42;;
33814;SDS011;20121;51.910;8.406;2022-08-25T04:18:40;5.82;;;3.30;;
33814;SDS011;20121;51.910;8.406;2022-08-25T04:21:07;6.78;;;2.80;;
33814;SDS011;20121;51.910;8.406;2022-08-25T04:23:34;4.70;;;3.15;;
33814;SDS011;20121;51.910;8.406;2022-08-25T04:26:21;3.55;;;2.25;;
33814;SDS011;20121;51.910;8.406;2022-08-25T04:28:51;3.08;;;2.78;;
33814;SDS011;20121;51.910;8.406;2022-08-25T04:31:17;3.97;;;2.60;;
33814;SDS011;20121;51.910;8.406;2022-08-25T04:33:45;3.60;;;2.90;;
33814;SDS011;20121;51.910;8.406;2022-08-25T04:36:12;3.13;;;2.83;;
33814;SDS011;20121;51.910;8.406;2022-08-25T04:38:40;5.50;;;3.70;;
33814;SDS011;20121;51.910;8.406;2022-08-25T04:41:07;2.88;;;2.67;;
33814;SDS011;20121;51.910;8.406;2022-08-25T04:43:35;4.97;;;3.28;;
33814;SDS011;20121;51.910;8.406;2022-08-25T04:46:13;2.25;;;2.05;;
33814;SDS011;20121;51.910;8.406;2022-08-25T04:48:43;2.80;;;2.60;;
33814;SDS011;20121;51.910;8.406;2022-08-25T04:51:10;3.92;;;2.97;;
33814;SDS011;20121;51.910;8.406;2022-08-25T04:53:38;2.33;;;2.13;;
33814;SDS011;20121;51.910;8.406;2022-08-25T04:56:06;2.78;;;2.55;;
33814;SDS011;20121;51.910;8.406;2022-08-25T04:58:36;3.17;;;2.47;;
33814;SDS011;20121;51.910;8.406;2022-08-25T05:01:06;7.03;;;3.15;;
33814;SDS011;20121;51.910;8.406;2022-08-25T05:03:36;2.45;;;2.25;;
33814;SDS011;20121;51.910;8.406;2022-08-25T05:06:03;3.25;;;2.88;;
33814;SDS011;20121;51.910;8.406;2022-08-25T05:08:30;3.00;;;2.80;;
33814;SDS011;20121;51.910;8.406;2022-08-25T05:10:56;4.65;;;3.20;;
33814;SDS011;20121;51.910;8.406;2022-08-25T05:13:22;3.33;;;3.00;;
33814;SDS011;20121;51.910;8.406;2022-08-25T05:15:56;3.05;;;2.42;;
33814;SDS011;20121;51.910;8.406;2022-08-25T05:18:25;4.90;;;3.58;;
33814;SDS011;20121;51.910;8.406;2022-08-25T05:20:54;3.05;;;2.28;;
33814;SDS011;20121;51.910;8.406;2022-08-25T05:23:21;5.25;;;3.03;;
33814;SDS011;20121;51.910;8.406;2022-08-25T05:25:48;2.70;;;2.50;;
33814;SDS011;20121;51.910;8.406;2022-08-25T05:28:15;2.78;;;2.58;;
33814;SDS011;20121;51.910;8.406;2022-08-25T05:30:41;2.63;;;2.40;;
33814;SDS011;20121;51.910;8.406;2022-08-25T05:33:08;3.05;;;2.83;;
33814;SDS011;20121;51.910;8.406;2022-08-25T05:35:35;5.78;;;2.30;;
33814;SDS011;20121;51.910;8.406;2022-08-25T05:38:01;4.07;;;3.00;;
33814;SDS011;20121;51.910;8.406;2022-08-25T05:40:28;3.50;;;2.72;;
33814;SDS011;20121;51.910;8.406;2022-08-25T05:42:54;6.93;;;3.15;;
33814;SDS011;20121;51.910;8.406;2022-08-25T05:45:20;3.25;;;2.70;;
33814;SDS011;20121;51.910;8.406;2022-08-25T05:47:47;2.97;;;2.70;;
33814;SDS011;20121;51.910;8.406;2022-08-25T05:50:13;3.20;;;2.70;;
33814;SDS011;20121;51.910;8.406;2022-08-25T05:52:39;8.63;;;3.33;;
33814;SDS011;20121;51.910;8.406;2022-08-25T05:55:05;4.32;;;3.35;;
33814;SDS011;20121;51.910;8.406;2022-08-25T05:57:31;8.77;;;4.05;;
33814;SDS011;20121;51.910;8.406;2022-08-25T05:59:58;3.78;;;3.10;;
33814;SDS011;20121;51.910;8.406;2022-08-25T06:02:24;4.03;;;2.75;;
33814;SDS011;20121;51.910;8.406;2022-08-25T06:05:06;4.80;;;3.17;;
33814;SDS011;20121;51.910;8.406;2022-08-25T06:07:32;8.75;;;3.88;;
33814;SDS011;20121;51.910;8.406;2022-08-25T06:10:00;3.30;;;3.00;;
33814;SDS011;20121;51.910;8.406;2022-08-25T06:12:26;3.80;;;3.40;;
33814;SDS011;20121;51.910;8.406;2022-08-25T06:14:52;3.85;;;2.65;;
33814;SDS011;20121;51.910;8.406;2022-08-25T06:17:18;3.27;;;3.07;;
33814;SDS011;20121;51.910;8.406;2022-08-25T06:19:44;4.45;;;3.38;;
33814;SDS011;20121;51.910;8.406;2022-08-25T06:22:10;3.10;;;2.85;;
33814;SDS011;20121;51.910;8.406;2022-08-25T06:24:36;6.83;;;2.97;;
33814;SDS011;20121;51.910;8.406;2022-08-25T06:27:02;2.78;;;2.58;;
33814;SDS011;20121;51.910;8.406;2022-08-25T06:29:28;4.40;;;2.38;;
33814;SDS011;20121;51.910;8.406;2022-08-25T06:31:54;6.25;;;3.58;;
33814;SDS011;20121;51.910;8.406;2022-08-25T06:34:20;3.90;;;3.00;;
33814;SDS011;20121;51.910;8.406;2022-08-25T06:36:46;2.83;;;2.63;;
33814;SDS011;20121;51.910;8.406;2022-08-25T06:39:12;4.03;;;2.93;;
33814;SDS011;20121;51.910;8.406;2022-08-25T06:41:37;3.93;;;3.13;;
33814;SDS011;20121;51.910;8.406;2022-08-25T06:44:04;3.75;;;3.03;;
33814;SDS011;20121;51.910;8.406;2022-08-25T06:46:30;3.10;;;2.80;;
33814;SDS011;20121;51.910;8.406;2022-08-25T06:48:56;3.23;;;2.70;;
33814;SDS011;20121;51.910;8.406;2022-08-25T06:51:22;4.40;;;3.30;;
33814;SDS011;20121;51.910;8.406;2022-08-25T06:53:50;3.10;;;2.80;;
33814;SDS011;20121;51.910;8.406;2022-08-25T06:56:17;4.13;;;2.97;;
33814;SDS011;20121;51.910;8.406;2022-08-25T06:58:44;6.47;;;2.53;;
33814;SDS011;20121;51.910;8.406;2022-08-25T07:01:13;3.07;;;2.87;;
33814;SDS011;20121;51.910;8.406;2022-08-25T07:03:46;5.05;;;3.58;;
33814;SDS011;20121;51.910;8.406;2022-08-25T07:06:14;2.92;;;2.72;;
33814;SDS011;20121;51.910;8.406;2022-08-25T07:08:42;4.22;;;3.80;;
33814;SDS011;20121;51.910;8.406;2022-08-25T07:11:08;6.80;;;2.83;;
33814;SDS011;20121;51.910;8.406;2022-08-25T07:13:35;6.25;;;3.00;;
33814;SDS011;20121;51.910;8.406;2022-08-25T07:16:02;3.10;;;2.78;;
33814;SDS011;20121;51.910;8.406;2022-08-25T07:18:28;3.90;;;3.50;;
33814;SDS011;20121;51.910;8.406;2022-08-25T07:20:54;4.25;;;3.00;;
33814;SDS011;20121;51.910;8.406;2022-08-25T07:23:22;3.35;;;2.67;;
33814;SDS011;20121;51.910;8.406;2022-08-25T07:25:48;3.22;;;2.90;;
33814;SDS011;20121;51.910;8.406;2022-08-25T07:28:15;5.05;;;3.88;;
33814;SDS011;20121;51.910;8.406;2022-08-25T07:30:41;3.83;;;2.75;;
33814;SDS011;20121;51.910;8.406;2022-08-25T07:33:07;2.85;;;2.65;;
33814;SDS011;20121;51.910;8.406;2022-08-25T07:35:33;5.30;;;3.57;;
33814;SDS011;20121;51.910;8.406;2022-08-25T07:38:01;4.53;;;3.33;;
33814;SDS011;20121;51.910;8.406;2022-08-25T07:40:28;3.35;;;2.80;;
33814;SDS011;20121;51.910;8.406;2022-08-25T07:42:57;10.43;;;3.80;;
33814;SDS011;20121;51.910;8.406;2022-08-25T07:45:25;2.88;;;2.67;;
33814;SDS011;20121;51.910;8.406;2022-08-25T07:48:15;3.88;;;3.55;;
33814;SDS011;20121;51.910;8.406;2022-08-25T07:50:41;5.90;;;3.80;;
33814;SDS011;20121;51.910;8.406;2022-08-25T07:53:09;5.47;;;3.33;;
33814;SDS011;20121;51.910;8.406;2022-08-25T07:55:36;5.20;;;2.90;;
33814;SDS011;20121;51.910;8.406;2022-08-25T07:58:03;5.53;;;2.95;;
33814;SDS011;20121;51.910;8.406;2022-08-25T08:00:30;4.90;;;3.20;;
33814;SDS011;20121;51.910;8.406;2022-08-25T08:02:57;5.20;;;4.13;;
33814;SDS011;20121;51.910;8.406;2022-08-25T08:05:25;6.60;;;3.80;;
33814;SDS011;20121;51.910;8.406;2022-08-25T08:07:52;8.25;;;4.95;;
33814;SDS011;20121;51.910;8.406;2022-08-25T08:10:19;5.75;;;4.35;;
33814;SDS011;20121;51.910;8.406;2022-08-25T08:12:45;10.77;;;4.25;;
33814;SDS011;20121;51.910;8.406;2022-08-25T08:15:11;3.53;;;3.10;;
33814;SDS011;20121;51.910;8.406;2022-08-25T08:17:38;3.90;;;3.47;;
33814;SDS011;20121;51.910;8.406;2022-08-25T08:20:04;3.77;;;3.37;;
33814;SDS011;20121;51.910;8.406;2022-08-25T08:22:38;4.60;;;3.58;;
33814;SDS011;20121;51.910;8.406;2022-08-25T08:25:07;4.50;;;3.60;;
33814;SDS011;20121;51.910;8.406;2022-08-25T08:27:34;3.90;;;3.47;;
33814;SDS011;20121;51.910;8.406;2022-08-25T08:30:00;3.63;;;2.80;;
33814;SDS011;20121;51.910;8.406;2022-08-25T08:32:26;4.83;;;3.97;;
33814;SDS011;20121;51.910;8.406;2022-08-25T08:34:52;4.87;;;3.80;;
33814;SDS011;20121;51.910;8.406;2022-08-25T08:37:18;6.03;;;3.80;;
33814;SDS011;20121;51.910;8.406;2022-08-25T08:39:44;4.07;;;3.47;;
33814;SDS011;20121;51.910;8.406;2022-08-25T08:42:13;5.93;;;4.40;;
33814;SDS011;20121;51.910;8.406;2022-08-25T08:47:29;7.23;;;4.00;;
33814;SDS011;20121;51.910;8.406;2022-08-25T08:56:00;5.43;;;4.87;;
33814;SDS011;20121;51.910;8.406;2022-08-25T09:01:07;4.20;;;3.60;;
33814;SDS011;20121;51.910;8.406;2022-08-25T09:06:08;3.10;;;2.80;;
33814;SDS011;20121;51.910;8.406;2022-08-25T09:08:42;4.37;;;3.73;;
33814;SDS011;20121;51.910;8.406;2022-08-25T09:11:20;6.70;;;4.13;;
33814;SDS011;20121;51.910;8.406;2022-08-25T09:16:41;5.57;;;3.87;;
33814;SDS011;20121;51.910;8.406;2022-08-25T09:27:50;4.07;;;3.67;;
33814;SDS011;20121;51.910;8.406;2022-08-25T09:30:33;3.67;;;3.20;;
33814;SDS011;20121;51.910;8.406;2022-08-25T09:33:14;3.87;;;3.20;;
33814;SDS011;20121;51.910;8.406;2022-08-25T09:35:44;5.60;;;3.70;;
33814;SDS011;20121;51.910;8.406;2022-08-25T09:38:11;5.63;;;3.97;;
33814;SDS011;20121;51.910;8.406;2022-08-25T09:40:39;8.80;;;4.70;;
33814;SDS011;20121;51.910;8.406;2022-08-25T09:48:27;5.03;;;4.30;;
33814;SDS011;20121;51.910;8.406;2022-08-25T09:51:08;6.30;;;4.83;;
33814;SDS011;20121;51.910;8.406;2022-08-25T09:53:34;4.37;;;3.90;;
33814;SDS011;20121;51.910;8.406;2022-08-25T09:56:02;4.47;;;3.30;;
33814;SDS011;20121;51.910;8.406;2022-08-25T09:58:30;5.20;;;3.50;;
33814;SDS011;20121;51.910;8.406;2022-08-25T10:01:01;5.43;;;3.70;;
33814;SDS011;20121;51.910;8.406;2022-08-25T10:06:20;4.90;;;4.40;;
33814;SDS011;20121;51.910;8.406;2022-08-25T10:11:14;8.93;;;4.30;;
33814;SDS011;20121;51.910;8.406;2022-08-25T10:16:28;5.63;;;3.50;;
33814;SDS011;20121;51.910;8.406;2022-08-25T10:19:02;3.70;;;3.40;;
33814;SDS011;20121;51.910;8.406;2022-08-25T10:21:31;5.50;;;3.40;;
33814;SDS011;20121;51.910;8.406;2022-08-25T10:23:58;3.57;;;3.27;;
33814;SDS011;20121;51.910;8.406;2022-08-25T10:26:33;4.67;;;3.63;;
33814;SDS011;20121;51.910;8.406;2022-08-25T10:31:36;4.70;;;3.58;;
33814;SDS011;20121;51.910;8.406;2022-08-25T10:34:14;4.40;;;3.20;;
33814;SDS011;20121;51.910;8.406;2022-08-25T10:36:53;4.00;;;3.60;;
33814;SDS011;20121;51.910;8.406;2022-08-25T10:39:57;6.53;;;4.57;;
33814;SDS011;20121;51.910;8.406;2022-08-25T10:42:33;3.80;;;3.50;;
33814;SDS011;20121;51.910;8.406;2022-08-25T10:45:16;4.90;;;3.90;;
33814;SDS011;20121;51.910;8.406;2022-08-25T10:50:55;3.77;;;3.43;;
33814;SDS011;20121;51.910;8.406;2022-08-25T10:56:07;8.47;;;3.50;;
33814;SDS011;20121;51.910;8.406;2022-08-25T11:01:25;4.60;;;3.90;;
33814;SDS011;20121;51.910;8.406;2022-08-25T11:04:36;3.50;;;3.20;;
33814;SDS011;20121;51.910;8.406;2022-08-25T11:09:33;6.90;;;3.90;;
33814;SDS011;20121;51.910;8.406;2022-08-25T11:14:40;3.10;;;2.80;;
33814;SDS011;20121;51.910;8.406;2022-08-25T11:20:04;4.50;;;3.60;;
33814;SDS011;20121;51.910;8.406;2022-08-25T11:25:06;6.83;;;4.43;;
33814;SDS011;20121;51.910;8.406;2022-08-25T11:30:16;6.23;;;3.47;;
33814;SDS011;20121;51.910;8.406;2022-08-25T11:32:44;8.00;;;4.03;;
33814;SDS011;20121;51.910;8.406;2022-08-25T11:35:13;3.90;;;3.50;;
33814;SDS011;20121;51.910;8.406;2022-08-25T11:37:51;3.97;;;3.67;;
33814;SDS011;20121;51.910;8.406;2022-08-25T11:40:34;4.23;;;3.33;;
33814;SDS011;20121;51.910;8.406;2022-08-25T11:43:06;11.00;;;4.27;;
33814;SDS011;20121;51.910;8.406;2022-08-25T11:54:14;3.70;;;3.30;;
33814;SDS011;20121;51.910;8.406;2022-08-25T11:57:01;4.50;;;3.10;;
33814;SDS011;20121;51.910;8.406;2022-08-25T12:02:48;3.70;;;2.90;;
33814;SDS011;20121;51.910;8.406;2022-08-25T12:10:13;3.90;;;3.53;;
33814;SDS011;20121;51.910;8.406;2022-08-25T12:15:20;3.43;;;3.20;;
33814;SDS011;20121;51.910;8.406;2022-08-25T12:23:33;4.17;;;3.57;;
33814;SDS011;20121;51.910;8.406;2022-08-25T12:28:46;2.73;;;2.53;;
33814;SDS011;20121;51.910;8.406;2022-08-25T12:34:05;4.17;;;3.87;;
33814;SDS011;20121;51.910;8.406;2022-08-25T12:36:58;5.23;;;3.53;;
33814;SDS011;20121;51.910;8.406;2022-08-25T12:40:18;4.67;;;3.70;;
33814;SDS011;20121;51.910;8.406;2022-08-25T12:42:21;5.27;;;3.53;;
33814;SDS011;20121;51.910;8.406;2022-08-25T12:47:45;3.90;;;3.47;;
33814;SDS011;20121;51.910;8.406;2022-08-25T12:55:42;3.70;;;3.40;;
33814;SDS011;20121;51.910;8.406;2022-08-25T12:58:15;5.73;;;3.73;;
33814;SDS011;20121;51.910;8.406;2022-08-25T13:09:18;3.60;;;3.30;;
33814;SDS011;20121;51.910;8.406;2022-08-25T13:12:16;4.57;;;3.80;;
33814;SDS011;20121;51.910;8.406;2022-08-25T13:14:52;4.13;;;3.20;;
33814;SDS011;20121;51.910;8.406;2022-08-25T13:17:26;5.83;;;3.33;;
33814;SDS011;20121;51.910;8.406;2022-08-25T13:22:58;6.73;;;4.33;;
33814;SDS011;20121;51.910;8.406;2022-08-25T13:25:28;5.40;;;3.87;;
33814;SDS011;20121;51.910;8.406;2022-08-25T13:27:59;4.17;;;3.80;;
33814;SDS011;20121;51.910;8.406;2022-08-25T13:30:28;3.43;;;3.13;;
33814;SDS011;20121;51.910;8.406;2022-08-25T13:32:59;4.27;;;3.87;;
33814;SDS011;20121;51.910;8.406;2022-08-25T13:35:44;4.87;;;3.60;;
33814;SDS011;20121;51.910;8.406;2022-08-25T13:38:14;4.67;;;3.50;;
33814;SDS011;20121;51.910;8.406;2022-08-25T13:40:41;5.27;;;3.93;;
33814;SDS011;20121;51.910;8.406;2022-08-25T13:43:08;5.10;;;3.80;;
33814;SDS011;20121;51.910;8.406;2022-08-25T13:45:45;6.23;;;4.60;;
33814;SDS011;20121;51.910;8.406;2022-08-25T13:48:13;5.17;;;4.23;;
33814;SDS011;20121;51.910;8.406;2022-08-25T13:51:02;4.40;;;3.97;;
33814;SDS011;20121;51.910;8.406;2022-08-25T13:53:50;3.90;;;3.50;;
33814;SDS011;20121;51.910;8.406;2022-08-25T13:56:22;4.60;;;3.83;;
33814;SDS011;20121;51.910;8.406;2022-08-25T13:58:53;7.20;;;4.00;;
33814;SDS011;20121;51.910;8.406;2022-08-25T14:01:22;5.50;;;3.70;;
33814;SDS011;20121;51.910;8.406;2022-08-25T14:06:48;5.07;;;3.90;;
33814;SDS011;20121;51.910;8.406;2022-08-25T14:09:56;4.00;;;3.53;;
33814;SDS011;20121;51.910;8.406;2022-08-25T14:12:29;4.27;;;3.87;;
33814;SDS011;20121;51.910;8.406;2022-08-25T14:15:00;5.20;;;3.67;;
33814;SDS011;20121;51.910;8.406;2022-08-25T14:17:48;4.67;;;3.57;;
33814;SDS011;20121;51.910;8.406;2022-08-25T14:20:42;6.00;;;3.40;;
33814;SDS011;20121;51.910;8.406;2022-08-25T14:23:13;4.27;;;3.87;;
33814;SDS011;20121;51.910;8.406;2022-08-25T14:25:42;5.20;;;3.37;;
33814;SDS011;20121;51.910;8.406;2022-08-25T14:28:09;3.30;;;3.00;;
33814;SDS011;20121;51.910;8.406;2022-08-25T14:30:47;4.20;;;3.50;;
33814;SDS011;20121;51.910;8.406;2022-08-25T14:33:22;3.93;;;3.63;;
33814;SDS011;20121;51.910;8.406;2022-08-25T14:35:52;5.10;;;4.33;;
33814;SDS011;20121;51.910;8.406;2022-08-25T14:38:19;5.17;;;4.57;;
33814;SDS011;20121;51.910;8.406;2022-08-25T14:40:46;4.70;;;4.17;;
33814;SDS011;20121;51.910;8.406;2022-08-25T14:43:12;5.20;;;4.10;;
33814;SDS011;20121;51.910;8.406;2022-08-25T14:45:39;4.70;;;4.20;;
33814;SDS011;20121;51.910;8.406;2022-08-25T14:48:08;4.30;;;3.90;;
33814;SDS011;20121;51.910;8.406;2022-08-25T14:50:44;4.67;;;3.80;;
33814;SDS011;20121;51.910;8.406;2022-08-25T14:53:10;4.03;;;3.70;;
33814;SDS011;20121;51.910;8.406;2022-08-25T14:55:36;3.70;;;3.40;;
33814;SDS011;20121;51.910;8.406;2022-08-25T14:58:03;4.23;;;3.83;;
33814;SDS011;20121;51.910;8.406;2022-08-25T15:00:29;5.53;;;4.00;;
33814;SDS011;20121;51.910;8.406;2022-08-25T15:02:55;4.73;;;3.70;;
33814;SDS011;20121;51.910;8.406;2022-08-25T15:05:36;4.70;;;4.30;;
33814;SDS011;20121;51.910;8.406;2022-08-25T15:08:02;3.80;;;3.43;;
33814;SDS011;20121;51.910;8.406;2022-08-25T15:10:47;4.33;;;3.60;;
33814;SDS011;20121;51.910;8.406;2022-08-25T15:13:12;4.73;;;3.60;;
33814;SDS011;20121;51.910;8.406;2022-08-25T15:15:39;5.40;;;3.10;;
33814;SDS011;20121;51.910;8.406;2022-08-25T15:18:08;4.80;;;3.93;;
33814;SDS011;20121;51.910;8.406;2022-08-25T15:20:34;6.10;;;3.87;;
33814;SDS011;20121;51.910;8.406;2022-08-25T15:23:00;6.57;;;4.03;;
33814;SDS011;20121;51.910;8.406;2022-08-25T15:25:27;4.00;;;3.70;;
33814;SDS011;20121;51.910;8.406;2022-08-25T15:27:53;4.73;;;3.87;;
33814;SDS011;20121;51.910;8.406;2022-08-25T15:30:19;3.27;;;2.97;;
33814;SDS011;20121;51.910;8.406;2022-08-25T15:32:45;3.70;;;3.37;;
33814;SDS011;20121;51.910;8.406;2022-08-25T15:35:11;9.73;;;3.60;;
33814;SDS011;20121;51.910;8.406;2022-08-25T15:37:37;3.27;;;2.97;;
33814;SDS011;20121;51.910;8.406;2022-08-25T15:40:04;6.37;;;3.37;;
33814;SDS011;20121;51.910;8.406;2022-08-25T15:42:30;4.10;;;3.67;;
33814;SDS011;20121;51.910;8.406;2022-08-25T15:44:56;3.80;;;2.97;;
33814;SDS011;20121;51.910;8.406;2022-08-25T15:47:22;4.37;;;3.53;;
33814;SDS011;20121;51.910;8.406;2022-08-25T15:49:49;3.90;;;3.53;;
33814;SDS011;20121;51.910;8.406;2022-08-25T15:52:22;3.37;;;3.07;;
33814;SDS011;20121;51.910;8.406;2022-08-25T15:54:48;3.60;;;3.30;;
33814;SDS011;20121;51.910;8.406;2022-08-25T15:57:14;3.30;;;3.00;;
33814;SDS011;20121;51.910;8.406;2022-08-25T15:59:40;4.40;;;3.40;;
33814;SDS011;20121;51.910;8.406;2022-08-25T16:02:06;3.30;;;3.00;;
33814;SDS011;20121;51.910;8.406;2022-08-25T16:04:31;3.67;;;3.27;;
33814;SDS011;20121;51.910;8.406;2022-08-25T16:06:58;3.30;;;3.00;;
33814;SDS011;20121;51.910;8.406;2022-08-25T16:09:24;3.50;;;3.20;;
33814;SDS011;20121;51.910;8.406;2022-08-25T16:11:50;5.27;;;3.50;;
33814;SDS011;20121;51.910;8.406;2022-08-25T16:14:16;3.47;;;3.17;;
33814;SDS011;20121;51.910;8.406;2022-08-25T16:16:42;4.67;;;3.30;;
33814;SDS011;20121;51.910;8.406;2022-08-25T16:19:07;3.97;;;3.63;;
33814;SDS011;20121;51.910;8.406;2022-08-25T16:21:33;4.40;;;3.90;;
33814;SDS011;20121;51.910;8.406;2022-08-25T16:24:01;4.03;;;3.67;;
33814;SDS011;20121;51.910;8.406;2022-08-25T16:26:30;4.77;;;3.43;;
33814;SDS011;20121;51.910;8.406;2022-08-25T16:28:56;6.87;;;3.47;;
33814;SDS011;20121;51.910;8.406;2022-08-25T16:31:23;6.93;;;3.40;;
33814;SDS011;20121;51.910;8.406;2022-08-25T16:33:49;3.93;;;3.37;;
33814;SDS011;20121;51.910;8.406;2022-08-25T16:36:19;3.37;;;3.07;;
33814;SDS011;20121;51.910;8.406;2022-08-25T16:38:47;3.33;;;2.90;;
33814;SDS011;20121;51.910;8.406;2022-08-25T16:41:22;3.87;;;3.57;;
33814;SDS011;20121;51.910;8.406;2022-08-25T16:43:50;2.97;;;2.77;;
33814;SDS011;20121;51.910;8.406;2022-08-25T16:46:17;3.70;;;3.17;;
33814;SDS011;20121;51.910;8.406;2022-08-25T16:48:44;3.53;;;2.70;;
33814;SDS011;20121;51.910;8.406;2022-08-25T16:51:14;6.63;;;3.33;;
33814;SDS011;20121;51.910;8.406;2022-08-25T16:53:42;5.63;;;3.20;;
33814;SDS011;20121;51.910;8.406;2022-08-25T16:56:26;4.17;;;3.77;;
33814;SDS011;20121;51.910;8.406;2022-08-25T16:58:56;3.83;;;2.83;;